createdAt,value
2019-03-05T00:00:41.275Z,48.00
2019-03-05T00:03:12.597Z,48.80
2019-03-05T00:05:43.323Z,48.50
2019-03-05T00:08:14.642Z,48.70
2019-03-05T00:10:45.725Z,49.00
2019-03-05T00:13:16.564Z,48.70
2019-03-05T00:15:49.082Z,48.60
2019-03-05T00:18:20.045Z,48.90
2019-03-05T00:20:50.765Z,48.10
2019-03-05T00:23:46.329Z,48.20
2019-03-05T00:26:18.129Z,48.50
2019-03-05T00:29:23.411Z,48.70
2019-03-05T00:31:55.571Z,48.70
2019-03-05T00:35:00.975Z,49.00
2019-03-05T00:37:59.775Z,49.30
2019-03-05T00:41:11.055Z,49.70
2019-03-05T00:44:04.699Z,49.60
2019-03-05T00:47:18.259Z,49.70
2019-03-05T00:50:27.025Z,49.90
2019-03-05T00:53:19.703Z,49.70
2019-03-05T00:56:01.703Z,50.40
2019-03-05T00:58:48.986Z,50.60
2019-03-05T01:01:46.520Z,50.60
2019-03-05T01:04:25.829Z,50.30
2019-03-05T01:06:56.911Z,50.30
2019-03-05T01:09:28.109Z,50.40
2019-03-05T01:11:59.194Z,50.50
2019-03-05T01:14:30.154Z,50.50
2019-03-05T01:17:01.955Z,50.20
2019-03-05T01:19:33.035Z,50.10
2019-03-05T01:22:04.957Z,50.50
2019-03-05T01:24:36.038Z,50.30
2019-03-05T01:27:06.882Z,49.70
2019-03-05T01:29:38.799Z,49.90
2019-03-05T01:32:26.082Z,49.60
2019-03-05T01:35:14.326Z,49.40
2019-03-05T01:37:45.643Z,49.30
2019-03-05T01:40:38.205Z,49.40
2019-03-05T01:43:09.293Z,49.40
2019-03-05T01:45:40.617Z,49.10
2019-03-05T01:48:48.050Z,49.30
2019-03-05T01:51:19.013Z,49.50
2019-03-05T01:53:50.335Z,49.50
2019-03-05T01:56:21.773Z,49.40
2019-03-05T01:58:52.257Z,49.80
2019-03-05T02:01:23.458Z,49.90
2019-03-05T02:03:54.297Z,49.80
2019-03-05T02:06:25.742Z,49.70
2019-03-05T02:08:56.821Z,49.40
2019-03-05T02:11:28.024Z,49.50
2019-03-05T02:13:59.224Z,49.60
2019-03-05T02:16:30.426Z,49.50
2019-03-05T02:19:36.842Z,49.40
2019-03-05T02:22:10.866Z,49.30
2019-03-05T02:25:22.872Z,50.00
2019-03-05T02:28:11.773Z,49.60
2019-03-05T02:31:19.275Z,49.20
2019-03-05T02:34:13.632Z,49.40
2019-03-05T02:37:13.634Z,49.50
2019-03-05T02:40:18.438Z,49.60
2019-03-05T02:43:14.605Z,49.50
2019-03-05T02:46:19.881Z,49.60
2019-03-05T02:49:31.903Z,49.60
2019-03-05T02:52:33.331Z,49.60
2019-03-05T02:55:38.365Z,49.70
2019-03-05T02:58:07.885Z,49.50
2019-03-05T03:00:47.609Z,49.90
2019-03-05T03:03:29.729Z,49.90
2019-03-05T03:06:09.091Z,49.80
2019-03-05T03:08:40.413Z,49.60
2019-03-05T03:11:12.457Z,49.50
2019-03-05T03:13:43.895Z,49.80
2019-03-05T03:16:14.854Z,50.10
2019-03-05T03:18:46.060Z,49.80
2019-03-05T03:21:17.378Z,50.20
2019-03-05T03:23:48.098Z,50.20
2019-03-05T03:26:19.421Z,49.90
2019-03-05T03:28:51.104Z,50.10
2019-03-05T03:31:22.186Z,49.90
2019-03-05T03:33:53.143Z,50.00
2019-03-05T03:36:23.985Z,50.00
2019-03-05T03:38:54.706Z,49.80
2019-03-05T03:41:26.027Z,49.80
2019-03-05T03:43:58.192Z,49.80
2019-03-05T03:46:29.392Z,49.70
2019-03-05T03:49:00.352Z,49.50
2019-03-05T03:51:31.913Z,49.40
2019-03-05T03:54:03.243Z,49.50
2019-03-05T03:56:34.212Z,49.60
2019-03-05T03:59:05.645Z,49.60
2019-03-05T04:01:36.598Z,49.60
2019-03-05T04:04:07.324Z,49.80
2019-03-05T04:06:38.881Z,49.70
2019-03-05T04:09:12.739Z,49.80
2019-03-05T04:11:43.683Z,50.10
2019-03-05T04:14:14.644Z,49.90
2019-03-05T04:16:45.372Z,49.70
2019-03-05T04:19:20.065Z,50.00
2019-03-05T04:21:51.129Z,49.60
2019-03-05T04:24:22.809Z,49.30
2019-03-05T04:26:54.130Z,49.00
2019-03-05T04:29:26.534Z,49.40
2019-03-05T04:31:57.616Z,49.30
2019-03-05T04:34:28.694Z,49.30
2019-03-05T04:36:59.537Z,49.10
2019-03-05T04:39:30.497Z,49.00
2019-03-05T04:42:01.096Z,48.70
2019-03-05T04:44:39.499Z,48.80
2019-03-05T04:47:10.944Z,48.80
2019-03-05T04:52:43.945Z,48.40
2019-03-05T04:55:15.023Z,48.20
2019-03-05T04:57:45.985Z,48.70
2019-03-05T05:00:17.427Z,48.70
2019-03-05T05:02:48.509Z,48.40
2019-03-05T05:05:19.946Z,48.40
2019-03-05T05:07:50.911Z,48.60
2019-03-05T05:10:21.631Z,48.90
2019-03-05T05:12:52.833Z,48.70
2019-03-05T05:15:31.235Z,48.90
2019-03-05T05:18:02.435Z,48.80
2019-03-05T05:20:34.117Z,48.80
2019-03-05T05:23:05.079Z,49.00
2019-03-05T05:25:36.279Z,49.10
2019-03-05T05:28:07.486Z,49.00
2019-03-05T05:30:39.763Z,49.20
2019-03-05T05:33:10.733Z,49.50
2019-03-05T05:35:42.647Z,50.30
2019-03-05T05:38:13.492Z,49.70
2019-03-05T05:40:45.527Z,49.80
2019-03-05T05:43:18.529Z,49.70
2019-03-05T05:45:50.932Z,49.50
2019-03-05T05:48:22.614Z,49.60
2019-03-05T05:50:54.411Z,49.40
2019-03-05T05:53:25.373Z,49.40
2019-03-05T05:55:56.695Z,49.40
2019-03-05T05:58:27.415Z,49.40
2019-03-05T06:01:00.778Z,49.60
2019-03-05T06:03:31.857Z,49.40
2019-03-05T06:06:06.539Z,49.30
2019-03-05T06:08:38.101Z,49.40
2019-03-05T06:11:09.423Z,49.40
2019-03-05T06:13:41.465Z,49.30
2019-03-05T06:16:12.788Z,49.60
2019-03-05T06:18:43.866Z,49.60
2019-03-05T06:21:14.949Z,49.80
2019-03-05T06:23:46.156Z,49.90
2019-03-05T06:26:17.110Z,49.70
2019-03-05T06:28:48.431Z,49.60
2019-03-05T06:31:21.313Z,49.70
2019-03-05T06:33:52.874Z,49.80
2019-03-05T06:36:24.918Z,49.70
2019-03-05T06:38:56.476Z,49.90
2019-03-05T06:41:27.799Z,49.90
2019-03-05T06:43:58.762Z,50.00
2019-03-05T06:46:30.441Z,50.20
2019-03-05T06:49:02.362Z,50.20
2019-03-05T06:51:33.683Z,50.20
2019-03-05T06:54:05.006Z,50.00
2019-03-05T06:56:36.330Z,49.90
2019-03-05T06:59:08.728Z,49.70
2019-03-05T07:01:39.690Z,50.60
2019-03-05T07:04:10.410Z,49.70
2019-03-05T07:06:55.290Z,50.00
2019-03-05T07:09:50.254Z,49.80
2019-03-05T07:12:49.896Z,49.70
2019-03-05T07:16:03.096Z,49.70
2019-03-05T07:19:07.064Z,50.00
2019-03-05T07:22:03.460Z,49.90
2019-03-05T07:24:50.623Z,50.10
2019-03-05T07:27:30.940Z,50.10
2019-03-05T07:30:07.663Z,49.60
2019-03-05T07:32:38.866Z,49.40
2019-03-05T07:35:19.902Z,49.80
2019-03-05T07:37:52.909Z,49.90
2019-03-05T07:40:24.468Z,49.90
2019-03-05T07:42:55.428Z,50.30
2019-03-05T07:45:26.877Z,50.70
2019-03-05T07:47:57.715Z,50.70
2019-03-05T07:50:28.913Z,50.70
2019-03-05T07:53:00.238Z,51.50
2019-03-05T07:55:31.557Z,50.80
2019-03-05T07:58:02.398Z,50.80
2019-03-05T08:00:33.958Z,51.00
2019-03-05T08:03:04.801Z,50.80
2019-03-05T08:05:36.241Z,50.90
2019-03-05T08:08:42.724Z,50.50
2019-03-05T08:11:20.284Z,50.40
2019-03-05T08:14:22.453Z,50.50
2019-03-05T08:16:53.885Z,50.20
2019-03-05T08:19:24.848Z,50.70
2019-03-05T08:21:57.136Z,50.50
2019-03-05T08:24:28.576Z,50.30
2019-03-05T08:26:59.533Z,50.30
2019-03-05T08:29:30.373Z,50.30
2019-03-05T08:32:01.697Z,50.50
2019-03-05T08:34:32.414Z,50.80
2019-03-05T08:37:03.869Z,50.30
2019-03-05T08:39:35.059Z,49.80
2019-03-05T08:42:06.142Z,49.90
2019-03-05T08:44:46.877Z,49.90
2019-03-05T08:47:10.825Z,49.80
2019-03-05T08:49:41.544Z,49.40
2019-03-05T08:52:12.745Z,49.20
2019-03-05T08:54:45.492Z,49.10
2019-03-05T08:57:16.348Z,48.70
2019-03-05T08:59:47.428Z,48.50
2019-03-05T09:02:19.469Z,48.90
2019-03-05T09:04:51.751Z,48.10
2019-03-05T09:07:22.720Z,47.60
2019-03-05T09:09:54.033Z,47.70
2019-03-05T09:12:24.993Z,47.90
2019-03-05T09:14:55.478Z,47.90
2019-03-05T09:17:26.675Z,48.10
2019-03-05T09:19:58.001Z,48.20
2019-03-05T09:22:29.325Z,47.60
2019-03-05T09:25:00.519Z,47.40
2019-03-05T09:27:31.481Z,48.30
2019-03-05T09:30:02.805Z,47.70
2019-03-05T09:32:34.967Z,45.90
2019-03-05T09:37:46.490Z,45.60
2019-03-05T09:40:19.848Z,45.20
2019-03-05T09:42:50.809Z,45.60
2019-03-05T09:45:22.133Z,45.40
2019-03-05T09:47:53.577Z,45.90
2019-03-05T09:50:24.773Z,46.40
2019-03-05T09:52:55.976Z,46.70
2019-03-05T09:55:26.818Z,46.70
2019-03-05T09:58:07.431Z,45.90
2019-03-05T10:00:31.139Z,46.50
2019-03-05T10:03:01.863Z,46.30
2019-03-05T10:05:32.343Z,46.50
2019-03-05T10:08:03.070Z,46.30
2019-03-05T10:10:34.144Z,46.60
2019-03-05T10:13:05.105Z,45.70
2019-03-05T10:15:36.665Z,45.70
2019-03-05T10:18:12.699Z,45.10
2019-03-05T10:20:41.230Z,44.40
2019-03-05T10:23:12.190Z,44.30
2019-03-05T10:25:43.278Z,44.20
2019-03-05T10:28:14.594Z,44.20
2019-03-05T10:30:45.794Z,44.20
2019-03-05T10:33:18.676Z,43.10
2019-03-05T10:35:50.119Z,43.20
2019-03-05T10:38:22.879Z,43.60
2019-03-05T10:40:54.199Z,43.90
2019-03-05T10:43:25.399Z,43.80
2019-03-05T10:45:56.847Z,43.70
2019-03-05T10:48:30.255Z,43.40
2019-03-05T10:51:00.811Z,43.60
2019-03-05T10:53:32.845Z,42.80
2019-03-05T10:56:04.539Z,42.50
2019-03-05T10:58:35.248Z,42.70
2019-03-05T11:01:08.129Z,42.80
2019-03-05T11:03:39.694Z,42.50
2019-03-05T11:06:10.654Z,43.00
2019-03-05T11:08:41.974Z,43.40
2019-03-05T11:11:14.082Z,43.50
2019-03-05T11:13:48.156Z,42.60
2019-03-05T11:16:30.146Z,42.20
2019-03-05T11:18:52.424Z,41.80
2019-03-05T11:21:23.384Z,40.80
2019-03-05T11:23:56.023Z,41.20
2019-03-05T11:26:27.469Z,38.70
2019-03-05T11:28:59.622Z,39.30
2019-03-05T11:31:30.584Z,39.80
2019-03-05T11:34:02.864Z,40.10
2019-03-05T11:36:36.947Z,39.50
2019-03-05T11:39:10.548Z,39.10
2019-03-05T11:41:41.991Z,39.30
2019-03-05T11:44:13.672Z,39.30
2019-03-05T11:46:44.754Z,39.20
2019-03-05T11:49:16.439Z,38.60
2019-03-05T11:51:47.394Z,38.80
2019-03-05T11:54:18.838Z,39.30
2019-03-05T11:56:49.680Z,38.90
2019-03-05T11:59:20.765Z,38.30
2019-03-05T12:01:53.042Z,38.20
2019-03-05T12:04:24.121Z,38.20
2019-03-05T12:06:55.690Z,38.20
2019-03-05T12:09:29.164Z,38.10
2019-03-05T12:12:00.128Z,37.10
2019-03-05T12:14:31.329Z,37.30
2019-03-05T12:17:02.170Z,37.20
2019-03-05T12:19:33.489Z,37.70
2019-03-05T12:22:04.691Z,36.30
2019-03-05T12:24:35.174Z,37.30
2019-03-05T12:27:06.735Z,36.70
2019-03-05T12:29:37.694Z,37.60
2019-03-05T12:32:09.495Z,37.40
2019-03-05T12:34:40.336Z,36.10
2019-03-05T12:37:11.418Z,36.10
2019-03-05T12:39:42.619Z,36.30
2019-03-05T12:42:14.181Z,36.30
2019-03-05T12:44:45.621Z,35.60
2019-03-05T12:47:17.905Z,36.50
2019-03-05T12:49:49.344Z,37.40
2019-03-05T12:52:20.546Z,37.10
2019-03-05T12:54:52.711Z,36.70
2019-03-05T12:57:23.548Z,36.80
2019-03-05T12:59:55.830Z,37.10
2019-03-05T13:02:26.914Z,37.40
2019-03-05T13:04:57.752Z,36.90
2019-03-05T13:07:29.072Z,37.20
2019-03-05T13:10:02.445Z,36.30
2019-03-05T13:12:35.889Z,36.10
2019-03-05T13:15:08.080Z,36.80
2019-03-05T13:17:38.800Z,37.20
2019-03-05T13:20:22.444Z,36.60
2019-03-05T13:22:52.003Z,37.20
2019-03-05T13:25:24.323Z,36.50
2019-03-05T13:28:01.304Z,36.40
2019-03-05T13:30:30.526Z,36.30
2019-03-05T13:33:01.491Z,36.00
2019-03-05T13:35:33.887Z,36.90
2019-03-05T13:38:07.351Z,37.20
2019-03-05T13:40:40.455Z,37.10
2019-03-05T13:43:11.218Z,37.10
2019-03-05T13:45:49.132Z,37.60
2019-03-05T13:48:39.654Z,36.50
2019-03-05T13:51:35.097Z,36.80
2019-03-05T13:54:43.900Z,37.20
2019-03-05T13:57:55.001Z,37.40
2019-03-05T14:00:26.101Z,37.70
2019-03-05T14:03:09.060Z,37.50
2019-03-05T14:06:09.665Z,37.40
2019-03-05T14:08:57.791Z,37.50
2019-03-05T14:11:31.028Z,37.30
2019-03-05T14:14:02.249Z,37.60
2019-03-05T14:16:34.281Z,37.50
2019-03-05T14:19:06.443Z,38.00
2019-03-05T14:21:37.653Z,37.70
2019-03-05T14:24:08.717Z,38.10
2019-03-05T14:26:40.304Z,38.00
2019-03-05T14:29:11.503Z,38.10
2019-03-05T14:31:42.334Z,37.80
2019-03-05T14:34:13.786Z,37.90
2019-03-05T14:36:45.217Z,38.30
2019-03-05T14:39:29.870Z,38.80
2019-03-05T14:42:02.018Z,39.00
2019-03-05T14:44:39.773Z,39.10
2019-03-05T14:47:06.455Z,38.90
2019-03-05T14:49:37.918Z,39.10
2019-03-05T14:52:09.356Z,39.00
2019-03-05T14:54:40.808Z,39.00
2019-03-05T14:57:11.850Z,39.20
2019-03-05T14:59:43.629Z,39.30
2019-03-05T15:02:15.230Z,39.50
2019-03-05T15:04:46.773Z,39.70
2019-03-05T15:07:19.173Z,39.60
2019-03-05T15:09:50.500Z,39.90
2019-03-05T15:12:21.579Z,39.80
2019-03-05T15:14:52.537Z,40.40
2019-03-05T15:17:24.100Z,39.80
2019-03-05T15:19:55.448Z,39.90
2019-03-05T15:22:26.502Z,39.90
2019-03-05T15:24:57.730Z,39.90
2019-03-05T15:27:28.927Z,39.30
2019-03-05T15:30:00.321Z,38.70
2019-03-05T15:32:31.815Z,38.90
2019-03-05T15:35:03.254Z,39.20
2019-03-05T15:37:34.342Z,39.70
2019-03-05T15:40:05.922Z,40.20
2019-03-05T15:42:37.746Z,41.40
2019-03-05T15:45:11.650Z,42.10
2019-03-05T15:47:42.884Z,43.00
2019-03-05T15:50:18.991Z,43.20
2019-03-05T15:52:50.042Z,43.00
2019-03-05T15:55:21.119Z,43.40
2019-03-05T15:57:52.200Z,44.00
2019-03-05T16:00:27.242Z,44.90
2019-03-05T16:02:58.684Z,45.40
2019-03-05T16:05:29.884Z,45.90
2019-03-05T16:08:01.577Z,45.90
2019-03-05T16:10:33.729Z,46.10
2019-03-05T16:13:04.810Z,46.10
2019-03-05T16:15:35.894Z,46.00
2019-03-05T16:18:06.985Z,45.90
2019-03-05T16:20:38.347Z,45.80
2019-03-05T16:23:09.136Z,46.00
2019-03-05T16:25:39.978Z,46.10
2019-03-05T16:28:12.021Z,46.20
2019-03-05T16:31:12.641Z,46.50
2019-03-05T16:34:09.384Z,47.00
2019-03-05T16:37:02.105Z,47.80
2019-03-05T16:39:53.661Z,48.30
2019-03-05T16:42:36.024Z,48.80
2019-03-05T16:45:14.666Z,49.30
2019-03-05T16:48:05.306Z,49.60
2019-03-05T16:51:01.470Z,50.20
2019-03-05T16:53:52.854Z,50.70
2019-03-05T16:56:41.072Z,51.20
2019-03-05T16:59:25.230Z,51.40
2019-03-05T17:02:13.599Z,51.40
2019-03-05T17:05:22.384Z,51.40
2019-03-05T17:08:21.878Z,51.60
2019-03-05T17:11:00.518Z,51.50
2019-03-05T17:13:32.557Z,52.00
2019-03-05T17:16:03.882Z,52.40
2019-03-05T17:18:35.321Z,52.10
2019-03-05T17:21:07.001Z,52.20
2019-03-05T17:23:37.848Z,52.30
2019-03-05T17:26:10.365Z,52.10
2019-03-05T17:28:41.928Z,52.10
2019-03-05T17:31:13.733Z,52.10
2019-03-05T17:33:44.809Z,52.20
2019-03-05T17:36:15.649Z,52.30
2019-03-05T17:38:46.855Z,51.90
2019-03-05T17:41:20.218Z,52.20
2019-03-05T17:43:51.776Z,52.30
2019-03-05T17:46:22.734Z,52.20
2019-03-05T17:48:53.815Z,52.20
2019-03-05T17:51:26.384Z,52.10
2019-03-05T17:53:57.419Z,52.30
2019-03-05T17:56:31.632Z,52.40
2019-03-05T17:59:08.110Z,52.30
2019-03-05T18:01:39.791Z,52.40
2019-03-05T18:04:11.106Z,52.60
2019-03-05T18:06:44.833Z,52.70
2019-03-05T18:09:16.393Z,52.80
2019-03-05T18:11:49.396Z,52.90
2019-03-05T18:14:23.477Z,53.20
2019-03-05T18:16:54.675Z,53.50
2019-03-05T18:19:26.718Z,53.90
2019-03-05T18:21:58.153Z,54.10
2019-03-05T18:24:30.918Z,54.50
2019-03-05T18:27:04.398Z,54.30
2019-03-05T18:29:35.837Z,54.30
2019-03-05T18:32:06.677Z,54.10
2019-03-05T18:34:37.880Z,54.10
2019-03-05T18:37:08.724Z,54.20
2019-03-05T18:39:39.812Z,54.60
2019-03-05T18:42:10.890Z,54.70
2019-03-05T18:44:41.847Z,54.50
2019-03-05T18:47:12.806Z,54.30
2019-03-05T18:49:44.247Z,54.20
2019-03-05T18:52:18.932Z,54.10
2019-03-05T18:54:50.015Z,54.00
2019-03-05T18:57:22.537Z,53.90
2019-03-05T18:59:55.437Z,53.70
2019-03-05T19:02:28.177Z,53.70
2019-03-05T19:04:59.021Z,53.80
2019-03-05T19:07:31.110Z,53.90
2019-03-05T19:10:04.545Z,53.70
2019-03-05T19:12:36.108Z,53.60
2019-03-05T19:15:09.103Z,53.60
2019-03-05T19:17:40.551Z,53.20
2019-03-05T19:20:17.270Z,53.30
2019-03-05T19:22:51.356Z,53.40
2019-03-05T19:25:26.157Z,53.30
2019-03-05T19:27:57.352Z,53.40
2019-03-05T19:30:30.835Z,53.40
2019-03-05T19:33:03.237Z,53.50
2019-03-05T19:35:34.436Z,53.20
2019-03-05T19:38:06.119Z,53.50
2019-03-05T19:40:40.249Z,53.80
2019-03-05T19:43:13.561Z,54.20
2019-03-05T19:45:44.758Z,54.20
2019-03-05T19:48:16.123Z,54.10
2019-03-05T19:50:47.400Z,54.20
2019-03-05T19:53:20.042Z,54.20
2019-03-05T19:55:51.601Z,54.30
2019-03-05T19:58:23.162Z,54.30
2019-03-05T20:00:59.404Z,54.20
2019-03-05T20:03:30.983Z,54.20
2019-03-05T20:06:02.886Z,54.10
2019-03-05T20:08:39.740Z,54.00
2019-03-05T20:11:08.183Z,54.00
2019-03-05T20:13:40.451Z,54.20
2019-03-05T20:16:13.332Z,54.10
2019-03-05T20:18:44.173Z,54.00
2019-03-05T20:21:15.495Z,54.20
2019-03-05T20:23:46.220Z,54.20
2019-03-05T20:26:17.299Z,54.20
2019-03-05T20:28:48.623Z,54.20
2019-03-05T20:31:19.581Z,54.20
2019-03-05T20:33:50.906Z,54.30
2019-03-05T20:36:22.378Z,54.40
2019-03-05T20:38:53.904Z,54.70
2019-03-05T20:41:25.345Z,54.80
2019-03-05T20:43:56.788Z,54.80
2019-03-05T20:46:29.906Z,54.80
2019-03-05T20:49:01.107Z,54.80
2019-03-05T20:51:32.792Z,54.70
2019-03-05T20:54:04.111Z,54.80
2019-03-05T20:56:35.556Z,54.80
2019-03-05T20:59:07.113Z,55.00
2019-03-05T21:01:37.835Z,55.20
2019-03-05T21:04:09.279Z,55.30
2019-03-05T21:06:40.477Z,55.20
2019-03-05T21:09:24.763Z,55.80
2019-03-05T21:11:56.443Z,55.70
2019-03-05T21:14:28.001Z,55.50
2019-03-05T21:17:01.244Z,55.30
2019-03-05T21:19:32.451Z,55.40
2019-03-05T21:22:03.646Z,55.80
2019-03-05T21:24:35.445Z,55.60
2019-03-05T21:27:06.648Z,55.60
2019-03-05T21:29:37.371Z,55.50
2019-03-05T21:32:08.689Z,55.60
2019-03-05T21:34:40.371Z,55.90
2019-03-05T21:37:11.333Z,55.90
2019-03-05T21:39:42.178Z,55.80
2019-03-05T21:42:13.135Z,56.20
2019-03-05T21:44:44.699Z,56.20
2019-03-05T21:47:15.539Z,55.80
2019-03-05T21:49:47.219Z,56.00
2019-03-05T21:52:18.784Z,56.00
2019-03-05T21:54:50.222Z,56.10
2019-03-05T21:57:21.302Z,56.20
2019-03-05T21:59:52.025Z,56.20
2019-03-05T22:02:23.349Z,56.20
2019-03-05T22:04:54.547Z,56.30
2019-03-05T22:07:26.229Z,56.30
2019-03-05T22:09:58.269Z,56.40
2019-03-05T22:12:29.231Z,56.50
2019-03-05T22:15:00.345Z,56.40
2019-03-05T22:17:31.273Z,56.50
2019-03-05T22:20:02.123Z,56.60
2019-03-05T22:22:34.638Z,56.40
2019-03-05T22:25:06.799Z,56.50
2019-03-05T22:27:37.879Z,56.50
2019-03-05T22:30:14.481Z,56.60
2019-03-05T22:32:45.563Z,56.60
2019-03-05T22:35:20.719Z,56.60
2019-03-05T22:37:52.051Z,56.70
2019-03-05T22:40:24.336Z,56.80
2019-03-05T22:42:55.528Z,56.70
2019-03-05T22:45:29.007Z,56.90
2019-03-05T22:47:59.968Z,56.80
2019-03-05T22:50:31.413Z,57.00
2019-03-05T22:53:01.893Z,56.90
2019-03-05T22:55:32.975Z,57.10
2019-03-05T22:58:04.176Z,56.90
2019-03-05T23:01:11.976Z,56.80
2019-03-05T23:03:56.655Z,56.90
2019-03-05T23:06:28.539Z,56.90
2019-03-05T23:09:00.461Z,57.00
2019-03-05T23:11:33.821Z,57.00
2019-03-05T23:14:06.461Z,57.00
2019-03-05T23:16:37.545Z,57.50
2019-03-05T23:19:08.996Z,56.90
2019-03-05T23:21:40.185Z,56.90
2019-03-05T23:24:12.107Z,56.80
2019-03-05T23:26:44.151Z,56.80
2019-03-05T23:29:16.189Z,56.90
2019-03-05T23:31:47.392Z,56.80
2019-03-05T23:34:18.676Z,56.90
2019-03-05T23:36:49.674Z,56.80
2019-03-05T23:39:21.119Z,56.90
2019-03-05T23:41:52.677Z,57.00
2019-03-05T23:44:23.520Z,56.90
2019-03-05T23:46:54.477Z,56.80
2019-03-05T23:49:25.800Z,56.80
2019-03-05T23:51:57.121Z,56.90
2019-03-05T23:54:29.522Z,56.80
2019-03-05T23:57:00.384Z,56.80
2019-03-05T23:59:31.686Z,56.80
